Yellowstone Airport
KWYS : rendu visible

Aérodrome :











RETROUVEZ-NOUS SUR...

 
LOGIN :

S'inscrire | Disclaimer

   EN    FR    IT 

 









Légende :    VFR   VFR Marginal   IFR   IFR Intensif   IFR Très Intensif
Visi : 
Plafond : 
>= 8 km
>= 3000ft
5 à 8 km
1000 à 3000 ft
1500m à 5 km
500 à 1000 ft
800 à 1500m
200 à 500 ft
< 800m
< 200 ft
Symboles :   Orages  Brouillard  Fortes neiges  Fortes précipitations  Vent > 20 kt






- Altitude de l'aérodrome : 6649 ft


KWYS - Yellowstone

DERNIER METAR :
  • 100810Z AUTO 27004KT 10SM BKN009 OVC014 M11/M12 A3010 RMK AO2

METARs EXPIRÉS :
  • 100750Z AUTO 00000KT 10SM OVC013 M12/M13 A3010 RMK AO2
  • 100730Z AUTO 33004KT 10SM OVC014 M12/M13 A3010 RMK AO2
  • 100710Z AUTO 00000KT 10SM OVC015 M12/M13 A3010 RMK AO2
  • 100650Z AUTO 00000KT 10SM OVC016 M13/M14 A3010 RMK AO2
  • 100625Z AUTO 00000KT 10SM BKN018 M13/M13 A3010 RMK AO2
  • 100610Z AUTO 00000KT 10SM FEW014 FEW019 M12/M13 A3010 RMK AO2
  • 100550Z AUTO 00000KT 10SM FEW015 M12/M12 A3010 RMK AO2
  • 100530Z AUTO 30003KT 10SM BKN013 BKN018 M10/M11 A3009 RMK AO2

TAF KWYS
Valide du 10 à 06h jusqu'au 11 à 06h UTC


100520Z 1006/1106 VRB06KT P6SM OVC016
TEMPO 1010/1014 1SM BR OVC003
FM101400 VRB06KT P6SM SCT010
FM110200 VRB03KT P6SM BKN017



MET'MAP, la Météo Aéronautique d'un coup d'oeil ! - Copyright ORBIFLY Décembre 2007 - Disclaimer

ORBIFLY MET'MAP TEAM :

Programmation & Développement : Alexandra Zaïnal
Sur une idée originale de : Baudouin d'Aumeries
Assistance à la programmation : Marc-Olivier Méhu
Soutien technique & logistique : Manuel Goepfert

Contact : metmap@orbifly.com




SOURCES & CREDITS :

   NOAA       Earth
Advisory